Gulf Cajun — WDE2831 — position and weather

sailwx.info

Track history (hours):
 
Tides and Currents Weather Stations Pressure Air Temp Water Temp Dewpoint Dewpoint Depression Visibility Wind Speed Wind Dir Waves Ship Positions

Gulf Cajun

Owner: A.R. Cheramie Marine Management, Inc., Lafayette, LA. More information available from US FCC via Universal Licensing System and Coast Guard Vessel Documentation Center.

Last reported at 2017-Dec-11 16:13 UTC. Time now 2017-Dec-13 18:57 UTC.
Position N 58°18' W 135°45'.

Length 45 m; draft 3 m.

Type: Ship. MMSI: 367014320.

Date/timePositionNaut miles runAvg speedWind from/ knotsBaromVisibWave heightAir tempDewpointWater temp
2017-Dec-11 16:13N 58°18' W 135°45'1 2.7
2017-Dec-11 15:52N 58°18' W 135°47'4 0.5
2017-Dec-11 08:36N 58°17' W 135°40'1 5.6
2017-Dec-11 08:28N 58°17' W 135°41'2 5.2
2017-Dec-11 07:59N 58°18' W 135°46'2 4.3
2017-Dec-11 07:30N 58°18' W 135°50'2 4.2
2017-Dec-11 07:00N 58°17' W 135°53'2 3.7
2017-Dec-11 06:29N 58°17' W 135°57'2 3.6
2017-Dec-11 06:00N 58°15' W 135°59'2 4.1
2017-Dec-11 05:30N 58°13' W 136°01'0 0.7
2017-Dec-11 05:00N 58°13' W 136°01'0 0.1
2017-Dec-11 04:29N 58°13' W 136°01'0 0.0
2017-Dec-11 04:00N 58°13' W 136°01'0 0.0
2017-Dec-11 03:30N 58°13' W 136°01'0 0.0
2017-Dec-11 03:00N 58°13' W 136°01'0 0.0
2017-Dec-11 02:29N 58°13' W 136°01'0 0.1
2017-Dec-11 01:58N 58°13' W 136°01'0 0.1
2017-Dec-11 01:30N 58°13' W 136°00'0 0.0
2017-Dec-11 00:55N 58°13' W 136°00'0 0.0
2017-Dec-11 00:26N 58°13' W 136°00'0 0.1
2017-Dec-10 23:59N 58°13' W 136°00'0 0.1
2017-Dec-10 23:29N 58°13' W 136°00'0 0.0
2017-Dec-10 23:00N 58°13' W 136°00'0 0.1
2017-Dec-10 22:30N 58°13' W 136°01'0 0.1
2017-Dec-10 21:58N 58°13' W 136°01'0 0.1
2017-Dec-10 21:30N 58°13' W 136°01'0 0.0
2017-Dec-10 21:00N 58°13' W 136°01'0 0.0
2017-Dec-10 20:30N 58°13' W 136°01'0 0.0
2017-Dec-10 20:00N 58°13' W 136°01'0 0.0
2017-Dec-10 19:30N 58°13' W 136°01'0 0.1
2017-Dec-10 18:59N 58°13' W 136°01'0 0.1
2017-Dec-10 18:30N 58°13' W 136°01'1 1.2
2017-Dec-10 18:00N 58°14' W 136°01'3 5.2
2017-Dec-10 17:30N 58°16' W 135°58'3 6.6
2017-Dec-10 17:00N 58°17' W 135°52'3 6.1
2017-Dec-10 16:30N 58°18' W 135°47'6 1.6
2017-Dec-10 12:57N 58°16' W 135°37'3 6.3
2017-Dec-10 12:29N 58°17' W 135°42'3 5.5
2017-Dec-10 12:00N 58°18' W 135°47'3 4.8
2017-Dec-10 11:26N 58°17' W 135°42'1 0.1
2017-Dec-10 01:58N 58°17' W 135°40'3 5.9
2017-Dec-10 01:30N 58°18' W 135°44'1 1.5
2017-Dec-10 00:53N 58°18' W 135°46'2 0.2
2017-Dec-09 15:30N 58°17' W 135°42'2 4.7
2017-Dec-09 15:00N 58°18' W 135°46'4 0.7
2017-Dec-09 09:18N 58°17' W 135°40'2 6.4
2017-Dec-09 08:59N 58°18' W 135°43'2 2.9
2017-Dec-09 08:28N 58°18' W 135°46'8 1.2
2017-Dec-09 01:58N 58°15' W 135°32'3 5.4
2017-Dec-09 01:19N 58°17' W 135°38'3 6.9
2017-Dec-09 00:57N 58°18' W 135°42'1 0.1
2017-Dec-08 15:53N 58°17' W 135°43'2 4.2
2017-Dec-08 15:30N 58°18' W 135°40'4 1.1
2017-Dec-08 12:06N 58°15' W 135°35'1 5.9
2017-Dec-08 12:00N 58°15' W 135°36'1 1.7
2017-Dec-08 11:07N 58°17' W 135°35'  
2017-Dec-04 10:30N 49°56' W 125°08'3 5.2
2017-Dec-04 10:00N 49°55' W 125°04'3 5.2
2017-Dec-04 09:30N 49°53' W 125°01'3 5.4
2017-Dec-04 08:59N 49°52' W 124°57'3 5.4
2017-Dec-04 08:30N 49°50' W 124°54'3 5.2
2017-Dec-04 07:59N 49°49' W 124°51'3 5.2
2017-Dec-04 07:30N 49°47' W 124°48'3 5.3
2017-Dec-04 07:00N 49°45' W 124°44'3 5.3
2017-Dec-04 06:30N 49°43' W 124°42'3 5.1
2017-Dec-04 05:59N 49°42' W 124°39'3 5.1
2017-Dec-04 05:23N 49°40' W 124°35'2 5.4
2017-Dec-04 04:58N 49°38' W 124°32'3 5.4
2017-Dec-04 04:29N 49°37' W 124°29'2 5.2
2017-Dec-04 04:00N 49°35' W 124°26'40 6.5
2017-Dec-03 21:54N 49°12' W 123°36'4 7.4
2017-Dec-03 21:24N 49°10' W 123°32'4 7.5
2017-Dec-03 20:53N 49°08' W 123°27'6 7.6
2017-Dec-03 20:07N 49°04' W 123°21'2 7.4
2017-Dec-03 19:54N 49°03' W 123°18'3 7.7
2017-Dec-03 19:29N 49°01' W 123°15'5 7.7
2017-Dec-03 18:50N 48°58' W 123°09'11 7.8
2017-Dec-03 17:28N 48°50' W 122°57'7 7.7
2017-Dec-03 16:32N 48°46' W 122°48'1 8.2
2017-Dec-03 16:23N 48°46' W 122°46'3 7.8
2017-Dec-03 16:00N 48°43' W 122°44'3 6.7
2017-Dec-03 15:30N 48°40' W 122°42'4 7.7
2017-Dec-03 15:00N 48°37' W 122°45'4 7.4
2017-Dec-03 14:30N 48°33' W 122°45'4 8.5
2017-Dec-03 14:00N 48°29' W 122°44'4 8.8
2017-Dec-03 13:30N 48°25' W 122°44'5 8.7
2017-Dec-03 12:59N 48°20' W 122°46'20 5.0
2017-Dec-03 09:00N 48°01' W 122°37'3 5.5
2017-Dec-03 08:30N 47°59' W 122°35'3 5.7
2017-Dec-03 08:00N 47°57' W 122°32'3 6.9
2017-Dec-03 07:30N 47°54' W 122°28'4 7.8
2017-Dec-03 07:00N 47°51' W 122°27'4 8.3
2017-Dec-03 06:30N 47°47' W 122°26'4 8.5
2017-Dec-03 06:00N 47°42' W 122°26'4 8.0
2017-Dec-03 05:30N 47°38' W 122°26'4 7.3
2017-Dec-03 05:00N 47°36' W 122°22'0 0.7
2017-Dec-03 04:30N 47°36' W 122°22'0 0.0
2017-Dec-03 04:00N 47°36' W 122°22'0 0.0
2017-Dec-03 03:30N 47°36' W 122°22'1 1.4
2017-Dec-03 03:00N 47°35' W 122°21'0 0.0
2017-Dec-03 02:30N 47°35' W 122°21'0 0.0
2017-Dec-03 02:00N 47°35' W 122°21'0 0.0
2017-Dec-03 01:30N 47°35' W 122°21'0 0.0
2017-Dec-03 01:00N 47°35' W 122°21'0 0.0
2017-Dec-03 00:30N 47°35' W 122°21'0 0.0
2017-Dec-03 00:00N 47°35' W 122°21'0 0.0
2017-Dec-02 23:30N 47°35' W 122°21'0 0.0
2017-Dec-02 23:00N 47°35' W 122°21'0 0.0
2017-Dec-02 22:30N 47°35' W 122°21'0 0.0
2017-Dec-02 22:00N 47°35' W 122°21'0 0.0
2017-Dec-02 21:30N 47°35' W 122°21'0 0.0
2017-Dec-02 21:00N 47°35' W 122°21'0 0.0
2017-Dec-02 20:30N 47°35' W 122°21'0 0.0
2017-Dec-02 20:01N 47°35' W 122°21'1 1.3
2017-Dec-02 19:30N 47°36' W 122°22'2 4.7
2017-Dec-02 19:00N 47°36' W 122°25'0 0.1
2017-Dec-02 18:31N 47°36' W 122°25'2 4.4
2017-Dec-02 18:00N 47°36' W 122°22'0 0.4
2017-Dec-02 17:30N 47°36' W 122°22'0 0.1
2017-Dec-02 17:00N 47°36' W 122°22'1 2.0
2017-Dec-02 16:30N 47°36' W 122°23'3 6.2
2017-Dec-02 16:00N 47°38' W 122°27'3 5.4
2017-Dec-02 15:30N 47°41' W 122°28'3 5.5
2017-Dec-02 15:00N 47°43' W 122°27'3 5.4
2017-Dec-02 14:30N 47°46' W 122°27'3 5.6
2017-Dec-02 14:00N 47°49' W 122°28'3 6.1
2017-Dec-02 13:30N 47°52' W 122°29'3 6.1
2017-Dec-02 13:00N 47°55' W 122°30'3 6.2
2017-Dec-02 12:30N 47°57' W 122°34'3 6.2
2017-Dec-02 11:59N 47°59' W 122°37'4 2.4
2017-Dec-02 10:21N 48°03' W 122°38'2 6.1
2017-Dec-02 09:58N 48°01' W 122°36'3 5.4
2017-Dec-02 09:30N 47°59' W 122°35'3 5.7
2017-Dec-02 09:00N 47°57' W 122°31'2 4.2
2017-Dec-02 08:30N 47°55' W 122°29'3 5.4
2017-Dec-02 08:00N 47°53' W 122°28'3 5.4
2017-Dec-02 07:30N 47°50' W 122°27'3 6.3
2017-Dec-02 07:00N 47°47' W 122°26'3 6.5
2017-Dec-02 06:30N 47°44' W 122°26'4 7.1
2017-Dec-02 06:01N 47°40' W 122°27'1 2.0
2017-Dec-02 05:30N 47°41' W 122°28'2 4.8
2017-Dec-02 05:00N 47°43' W 122°28'2 4.5
2017-Dec-02 04:30N 47°46' W 122°27'2 5.0
2017-Dec-02 04:00N 47°48' W 122°28'3 5.3
2017-Dec-02 03:30N 47°51' W 122°29'3 5.3
2017-Dec-02 03:00N 47°53' W 122°30'2 4.5
2017-Dec-02 02:30N 47°55' W 122°31'2 3.9
2017-Dec-02 02:00N 47°56' W 122°33'2 3.7
2017-Dec-02 01:30N 47°57' W 122°35'2 3.4
2017-Dec-02 00:59N 47°59' W 122°37'4 1.6
2017-Dec-01 22:33N 48°03' W 122°38'3 6.8
2017-Dec-01 22:11N 48°00' W 122°36'1 6.5
2017-Dec-01 22:00N 47°59' W 122°35'3 6.5
2017-Dec-01 21:30N 47°57' W 122°32'3 5.7
2017-Dec-01 21:00N 47°56' W 122°29'3 6.4
2017-Dec-01 20:30N 47°52' W 122°28'3 6.6
2017-Dec-01 20:00N 47°49' W 122°26'4 7.3
2017-Dec-01 19:30N 47°46' W 122°25'4 7.5
2017-Dec-01 19:00N 47°42' W 122°26'3 6.1
2017-Dec-01 18:30N 47°39' W 122°29'3 6.1
2017-Dec-01 18:00N 47°42' W 122°28'3 6.0
2017-Dec-01 17:30N 47°45' W 122°27'3 6.1
2017-Dec-01 17:00N 47°48' W 122°28'3 6.5
2017-Dec-01 16:30N 47°51' W 122°29'  
Track history (hours):
 
Tides and Currents Weather Stations Pressure Air Temp Water Temp Dewpoint Dewpoint Depression Visibility Wind Speed Wind Dir Waves Ship Positions

Gulf Cajun

Owner: A.R. Cheramie Marine Management, Inc., Lafayette, LA. More information available from US FCC via Universal Licensing System and Coast Guard Vessel Documentation Center.

Last reported at 2017-Dec-11 16:13 UTC. Time now 2017-Dec-13 18:57 UTC.
Position N 58°18' W 135°45'.

Length 45 m; draft 3 m.

Type: Ship. MMSI: 367014320.

Date/timePositionNaut miles runAvg speedWind from/ knotsBaromVisibWave heightAir tempDewpointWater temp
2017-Dec-11 16:13N 58°18' W 135°45'1 2.7
2017-Dec-11 15:52N 58°18' W 135°47'4 0.5
2017-Dec-11 08:36N 58°17' W 135°40'1 5.6
2017-Dec-11 08:28N 58°17' W 135°41'2 5.2
2017-Dec-11 07:59N 58°18' W 135°46'2 4.3
2017-Dec-11 07:30N 58°18' W 135°50'2 4.2
2017-Dec-11 07:00N 58°17' W 135°53'2 3.7
2017-Dec-11 06:29N 58°17' W 135°57'2 3.6
2017-Dec-11 06:00N 58°15' W 135°59'2 4.1
2017-Dec-11 05:30N 58°13' W 136°01'0 0.7
2017-Dec-11 05:00N 58°13' W 136°01'0 0.1
2017-Dec-11 04:29N 58°13' W 136°01'0 0.0
2017-Dec-11 04:00N 58°13' W 136°01'0 0.0
2017-Dec-11 03:30N 58°13' W 136°01'0 0.0
2017-Dec-11 03:00N 58°13' W 136°01'0 0.0
2017-Dec-11 02:29N 58°13' W 136°01'0 0.1
2017-Dec-11 01:58N 58°13' W 136°01'0 0.1
2017-Dec-11 01:30N 58°13' W 136°00'0 0.0
2017-Dec-11 00:55N 58°13' W 136°00'0 0.0
2017-Dec-11 00:26N 58°13' W 136°00'0 0.1
2017-Dec-10 23:59N 58°13' W 136°00'0 0.1
2017-Dec-10 23:29N 58°13' W 136°00'0 0.0
2017-Dec-10 23:00N 58°13' W 136°00'0 0.1
2017-Dec-10 22:30N 58°13' W 136°01'0 0.1
2017-Dec-10 21:58N 58°13' W 136°01'0 0.1
2017-Dec-10 21:30N 58°13' W 136°01'0 0.0
2017-Dec-10 21:00N 58°13' W 136°01'0 0.0
2017-Dec-10 20:30N 58°13' W 136°01'0 0.0
2017-Dec-10 20:00N 58°13' W 136°01'0 0.0
2017-Dec-10 19:30N 58°13' W 136°01'0 0.1
2017-Dec-10 18:59N 58°13' W 136°01'0 0.1
2017-Dec-10 18:30N 58°13' W 136°01'1 1.2
2017-Dec-10 18:00N 58°14' W 136°01'3 5.2
2017-Dec-10 17:30N 58°16' W 135°58'3 6.6
2017-Dec-10 17:00N 58°17' W 135°52'3 6.1
2017-Dec-10 16:30N 58°18' W 135°47'6 1.6
2017-Dec-10 12:57N 58°16' W 135°37'3 6.3
2017-Dec-10 12:29N 58°17' W 135°42'3 5.5
2017-Dec-10 12:00N 58°18' W 135°47'3 4.8
2017-Dec-10 11:26N 58°17' W 135°42'1 0.1
2017-Dec-10 01:58N 58°17' W 135°40'3 5.9
2017-Dec-10 01:30N 58°18' W 135°44'1 1.5
2017-Dec-10 00:53N 58°18' W 135°46'2 0.2
2017-Dec-09 15:30N 58°17' W 135°42'2 4.7
2017-Dec-09 15:00N 58°18' W 135°46'4 0.7
2017-Dec-09 09:18N 58°17' W 135°40'2 6.4
2017-Dec-09 08:59N 58°18' W 135°43'2 2.9
2017-Dec-09 08:28N 58°18' W 135°46'8 1.2
2017-Dec-09 01:58N 58°15' W 135°32'3 5.4
2017-Dec-09 01:19N 58°17' W 135°38'3 6.9
2017-Dec-09 00:57N 58°18' W 135°42'1 0.1
2017-Dec-08 15:53N 58°17' W 135°43'2 4.2
2017-Dec-08 15:30N 58°18' W 135°40'4 1.1
2017-Dec-08 12:06N 58°15' W 135°35'1 5.9
2017-Dec-08 12:00N 58°15' W 135°36'1 1.7
2017-Dec-08 11:07N 58°17' W 135°35'  
2017-Dec-04 10:30N 49°56' W 125°08'3 5.2
2017-Dec-04 10:00N 49°55' W 125°04'3 5.2
2017-Dec-04 09:30N 49°53' W 125°01'3 5.4
2017-Dec-04 08:59N 49°52' W 124°57'3 5.4
2017-Dec-04 08:30N 49°50' W 124°54'3 5.2
2017-Dec-04 07:59N 49°49' W 124°51'3 5.2
2017-Dec-04 07:30N 49°47' W 124°48'3 5.3
2017-Dec-04 07:00N 49°45' W 124°44'3 5.3
2017-Dec-04 06:30N 49°43' W 124°42'3 5.1
2017-Dec-04 05:59N 49°42' W 124°39'3 5.1
2017-Dec-04 05:23N 49°40' W 124°35'2 5.4
2017-Dec-04 04:58N 49°38' W 124°32'3 5.4
2017-Dec-04 04:29N 49°37' W 124°29'2 5.2
2017-Dec-04 04:00N 49°35' W 124°26'40 6.5
2017-Dec-03 21:54N 49°12' W 123°36'4 7.4
2017-Dec-03 21:24N 49°10' W 123°32'4 7.5
2017-Dec-03 20:53N 49°08' W 123°27'6 7.6
2017-Dec-03 20:07N 49°04' W 123°21'2 7.4
2017-Dec-03 19:54N 49°03' W 123°18'3 7.7
2017-Dec-03 19:29N 49°01' W 123°15'5 7.7
2017-Dec-03 18:50N 48°58' W 123°09'11 7.8
2017-Dec-03 17:28N 48°50' W 122°57'7 7.7
2017-Dec-03 16:32N 48°46' W 122°48'1 8.2
2017-Dec-03 16:23N 48°46' W 122°46'3 7.8
2017-Dec-03 16:00N 48°43' W 122°44'3 6.7
2017-Dec-03 15:30N 48°40' W 122°42'4 7.7
2017-Dec-03 15:00N 48°37' W 122°45'4 7.4
2017-Dec-03 14:30N 48°33' W 122°45'4 8.5
2017-Dec-03 14:00N 48°29' W 122°44'4 8.8
2017-Dec-03 13:30N 48°25' W 122°44'5 8.7
2017-Dec-03 12:59N 48°20' W 122°46'20 5.0
2017-Dec-03 09:00N 48°01' W 122°37'3 5.5
2017-Dec-03 08:30N 47°59' W 122°35'3 5.7
2017-Dec-03 08:00N 47°57' W 122°32'3 6.9
2017-Dec-03 07:30N 47°54' W 122°28'4 7.8
2017-Dec-03 07:00N 47°51' W 122°27'4 8.3
2017-Dec-03 06:30N 47°47' W 122°26'4 8.5
2017-Dec-03 06:00N 47°42' W 122°26'4 8.0
2017-Dec-03 05:30N 47°38' W 122°26'4 7.3
2017-Dec-03 05:00N 47°36' W 122°22'0 0.7
2017-Dec-03 04:30N 47°36' W 122°22'0 0.0
2017-Dec-03 04:00N 47°36' W 122°22'0 0.0
2017-Dec-03 03:30N 47°36' W 122°22'1 1.4
2017-Dec-03 03:00N 47°35' W 122°21'0 0.0
2017-Dec-03 02:30N 47°35' W 122°21'0 0.0
2017-Dec-03 02:00N 47°35' W 122°21'0 0.0
2017-Dec-03 01:30N 47°35' W 122°21'0 0.0
2017-Dec-03 01:00N 47°35' W 122°21'0 0.0
2017-Dec-03 00:30N 47°35' W 122°21'0 0.0
2017-Dec-03 00:00N 47°35' W 122°21'0 0.0
2017-Dec-02 23:30N 47°35' W 122°21'0 0.0
2017-Dec-02 23:00N 47°35' W 122°21'0 0.0
2017-Dec-02 22:30N 47°35' W 122°21'0 0.0
2017-Dec-02 22:00N 47°35' W 122°21'0 0.0
2017-Dec-02 21:30N 47°35' W 122°21'0 0.0
2017-Dec-02 21:00N 47°35' W 122°21'0 0.0
2017-Dec-02 20:30N 47°35' W 122°21'0 0.0
2017-Dec-02 20:01N 47°35' W 122°21'1 1.3
2017-Dec-02 19:30N 47°36' W 122°22'2 4.7
2017-Dec-02 19:00N 47°36' W 122°25'0 0.1
2017-Dec-02 18:31N 47°36' W 122°25'2 4.4
2017-Dec-02 18:00N 47°36' W 122°22'0 0.4
2017-Dec-02 17:30N 47°36' W 122°22'0 0.1
2017-Dec-02 17:00N 47°36' W 122°22'1 2.0
2017-Dec-02 16:30N 47°36' W 122°23'3 6.2
2017-Dec-02 16:00N 47°38' W 122°27'3 5.4
2017-Dec-02 15:30N 47°41' W 122°28'3 5.5
2017-Dec-02 15:00N 47°43' W 122°27'3 5.4
2017-Dec-02 14:30N 47°46' W 122°27'3 5.6
2017-Dec-02 14:00N 47°49' W 122°28'3 6.1
2017-Dec-02 13:30N 47°52' W 122°29'3 6.1
2017-Dec-02 13:00N 47°55' W 122°30'3 6.2
2017-Dec-02 12:30N 47°57' W 122°34'3 6.2
2017-Dec-02 11:59N 47°59' W 122°37'4 2.4
2017-Dec-02 10:21N 48°03' W 122°38'2 6.1
2017-Dec-02 09:58N 48°01' W 122°36'3 5.4
2017-Dec-02 09:30N 47°59' W 122°35'3 5.7
2017-Dec-02 09:00N 47°57' W 122°31'2 4.2
2017-Dec-02 08:30N 47°55' W 122°29'3 5.4
2017-Dec-02 08:00N 47°53' W 122°28'3 5.4
2017-Dec-02 07:30N 47°50' W 122°27'3 6.3
2017-Dec-02 07:00N 47°47' W 122°26'3 6.5
2017-Dec-02 06:30N 47°44' W 122°26'4 7.1
2017-Dec-02 06:01N 47°40' W 122°27'1 2.0
2017-Dec-02 05:30N 47°41' W 122°28'2 4.8
2017-Dec-02 05:00N 47°43' W 122°28'2 4.5
2017-Dec-02 04:30N 47°46' W 122°27'2 5.0
2017-Dec-02 04:00N 47°48' W 122°28'3 5.3
2017-Dec-02 03:30N 47°51' W 122°29'3 5.3
2017-Dec-02 03:00N 47°53' W 122°30'2 4.5
2017-Dec-02 02:30N 47°55' W 122°31'2 3.9
2017-Dec-02 02:00N 47°56' W 122°33'2 3.7
2017-Dec-02 01:30N 47°57' W 122°35'2 3.4
2017-Dec-02 00:59N 47°59' W 122°37'4 1.6
2017-Dec-01 22:33N 48°03' W 122°38'3 6.8
2017-Dec-01 22:11N 48°00' W 122°36'1 6.5
2017-Dec-01 22:00N 47°59' W 122°35'3 6.5
2017-Dec-01 21:30N 47°57' W 122°32'3 5.7
2017-Dec-01 21:00N 47°56' W 122°29'3 6.4
2017-Dec-01 20:30N 47°52' W 122°28'3 6.6
2017-Dec-01 20:00N 47°49' W 122°26'4 7.3
2017-Dec-01 19:30N 47°46' W 122°25'4 7.5
2017-Dec-01 19:00N 47°42' W 122°26'3 6.1
2017-Dec-01 18:30N 47°39' W 122°29'3 6.1
2017-Dec-01 18:00N 47°42' W 122°28'3 6.0
2017-Dec-01 17:30N 47°45' W 122°27'3 6.1
2017-Dec-01 17:00N 47°48' W 122°28'3 6.5
2017-Dec-01 16:30N 47°51' W 122°29'  

Dump ship's entire track history